Time,TemperatureF,DewpointF,PressureIn,WindDirection,WindDirectionDegrees,WindSpeedMPH,WindSpeedGustMPH,Humidity,HourlyPrecipIn,Conditions,Clouds,dailyrainin,SolarRadiationWatts/m^2,SoftwareType,DateUTC
2013-12-02 00:00:00,40.1,35.4,29.92,NE,41,0.0,0.0,83,0.00,,,0.00,0.00,VWS V14.01,2013-12-02 05:00:00,
2013-12-02 00:01:00,40.5,35.8,29.93,NE,41,0.0,0.0,83,0.00,,,0.00,0.00,VWS V14.01,2013-12-02 05:01:00,
2013-12-02 00:06:00,40.1,35.4,29.93,NE,41,0.0,0.0,83,0.00,,,0.00,0.00,VWS V14.01,2013-12-02 05:06:00,
2013-12-02 00:11:00,39.8,35.1,29.92,NE,41,0.0,0.0,83,0.00,,,0.00,0.00,VWS V14.01,2013-12-02 05:11:00,
2013-12-02 00:16:00,39.5,34.8,29.92,NE,41,0.0,0.0,83,0.00,,,0.00,0.00,VWS V14.01,2013-12-02 05:16:00,
2013-12-02 00:21:00,39.1,34.4,29.92,NE,41,0.0,0.0,83,0.00,,,0.00,0.00,VWS V14.01,2013-12-02 05:21:00,
2013-12-02 00:26:00,38.8,34.4,29.92,NE,41,0.0,0.0,84,0.00,,,0.00,0.00,VWS V14.01,2013-12-02 05:26:00,
2013-12-02 00:31:00,38.6,34.2,29.92,NE,41,0.0,0.0,84,0.00,,,0.00,0.00,VWS V14.01,2013-12-02 05:31:00,
2013-12-02 00:36:00,38.5,34.1,29.92,NE,41,0.0,0.0,84,0.00,,,0.00,0.00,VWS V14.01,2013-12-02 05:36:00,
2013-12-02 00:41:00,38.3,33.9,29.91,NE,41,0.0,0.0,84,0.00,,,0.00,0.00,VWS V14.01,2013-12-02 05:41:00,
2013-12-02 00:46:00,38.3,33.9,29.91,NE,41,0.0,0.0,84,0.00,,,0.00,0.00,VWS V14.01,2013-12-02 05:46:00,
2013-12-02 00:51:00,38.3,34.2,29.91,NE,41,0.0,0.0,85,0.00,,,0.00,0.00,VWS V14.01,2013-12-02 05:51:00,
2013-12-02 00:56:00,38.2,34.4,29.91,NE,41,0.0,0.0,86,0.00,,,0.00,0.00,VWS V14.01,2013-12-02 05:56:00,
2013-12-02 01:01:00,38.2,34.7,29.91,NE,41,0.0,0.0,87,0.00,,,0.00,0.00,VWS V14.01,2013-12-02 06:01:00,
2013-12-02 01:06:00,38.3,35.1,29.91,NE,41,0.0,0.0,88,0.00,,,0.00,0.00,VWS V14.01,2013-12-02 06:06:00,
2013-12-02 01:11:00,38.3,35.1,29.90,NE,41,0.0,0.0,88,0.00,,,0.00,0.00,VWS V14.01,2013-12-02 06:11:00,
2013-12-02 01:16:00,38.3,35.1,29.90,NE,41,0.0,0.0,88,0.00,,,0.00,0.00,VWS V14.01,2013-12-02 06:16:00,
2013-12-02 01:21:00,38.3,35.1,29.90,NE,41,0.0,0.0,88,0.00,,,0.00,0.00,VWS V14.01,2013-12-02 06:21:00,
2013-12-02 01:26:00,38.3,35.1,29.90,NE,41,0.0,0.0,88,0.00,,,0.00,0.00,VWS V14.01,2013-12-02 06:26:00,
2013-12-02 01:31:00,38.3,35.1,29.90,NE,41,0.0,0.0,88,0.00,,,0.00,0.00,VWS V14.01,2013-12-02 06:31:00,
2013-12-02 01:36:00,38.5,35.5,29.90,NE,41,0.0,0.0,89,0.00,,,0.00,0.00,VWS V14.01,2013-12-02 06:36:00,
2013-12-02 01:41:00,38.6,35.6,29.89,NE,41,0.0,0.0,89,0.00,,,0.00,0.00,VWS V14.01,2013-12-02 06:41:00,
2013-12-02 01:46:00,38.6,35.6,29.89,NE,41,0.0,0.0,89,0.00,,,0.00,0.00,VWS V14.01,2013-12-02 06:46:00,
2013-12-02 01:51:00,38.6,35.6,29.89,NE,41,0.0,0.0,89,0.00,,,0.00,0.00,VWS V14.01,2013-12-02 06:51:00,
2013-12-02 01:56:00,38.5,35.5,29.89,NE,41,0.0,0.0,89,0.00,,,0.00,0.00,VWS V14.01,2013-12-02 06:56:00,
2013-12-02 02:01:00,38.3,35.3,29.89,NE,41,0.0,0.0,89,0.00,,,0.00,0.00,VWS V14.01,2013-12-02 07:01:00,
2013-12-02 02:06:00,38.2,35.2,29.89,NE,41,0.0,0.0,89,0.00,,,0.00,0.00,VWS V14.01,2013-12-02 07:06:00,
2013-12-02 02:11:00,38.0,35.0,29.88,NE,41,0.0,0.0,89,0.00,,,0.00,0.00,VWS V14.01,2013-12-02 07:11:00,
2013-12-02 02:16:00,37.9,35.0,29.88,NE,41,0.0,0.0,89,0.00,,,0.00,0.00,VWS V14.01,2013-12-02 07:16:00,
2013-12-02 02:21:00,37.8,34.9,29.88,NE,41,0.0,0.0,89,0.00,,,0.00,0.00,VWS V14.01,2013-12-02 07:21:00,
2013-12-02 02:26:00,37.6,34.7,29.87,NE,41,0.0,0.0,89,0.00,,,0.00,0.00,VWS V14.01,2013-12-02 07:26:00,
2013-12-02 02:31:00,37.5,34.6,29.87,NE,41,0.0,0.0,89,0.00,,,0.00,0.00,VWS V14.01,2013-12-02 07:31:00,
2013-12-02 02:36:00,37.3,34.4,29.87,NE,41,0.0,0.0,89,0.00,,,0.00,0.00,VWS V14.01,2013-12-02 07:36:00,
2013-12-02 02:41:00,37.2,34.5,29.87,NE,41,0.0,0.0,90,0.00,,,0.00,0.00,VWS V14.01,2013-12-02 07:41:00,
2013-12-02 02:46:00,37.2,34.5,29.87,NE,41,0.0,0.0,90,0.00,,,0.00,0.00,VWS V14.01,2013-12-02 07:46:00,
2013-12-02 02:51:00,37.3,34.6,29.87,NE,41,0.0,0.0,90,0.00,,,0.00,0.00,VWS V14.01,2013-12-02 07:51:00,
2013-12-02 02:56:00,37.3,34.6,29.86,NE,41,0.0,0.0,90,0.00,,,0.00,0.00,VWS V14.01,2013-12-02 07:56:00,
2013-12-02 03:01:00,37.2,34.5,29.86,NE,41,0.0,0.0,90,0.00,,,0.00,0.00,VWS V14.01,2013-12-02 08:01:00,
2013-12-02 03:06:00,37.0,34.3,29.86,NE,41,0.0,0.0,90,0.00,,,0.00,0.00,VWS V14.01,2013-12-02 08:06:00,
2013-12-02 03:11:00,36.9,34.5,29.86,NE,41,0.0,0.0,91,0.00,,,0.00,0.00,VWS V14.01,2013-12-02 08:11:00,
2013-12-02 03:16:00,36.6,34.0,29.86,NE,41,0.0,0.0,90,0.00,,,0.00,0.00,VWS V14.01,2013-12-02 08:16:00,
2013-12-02 03:21:00,36.5,33.8,29.86,NE,41,0.0,0.0,90,0.00,,,0.00,0.00,VWS V14.01,2013-12-02 08:21:00,
2013-12-02 03:26:00,36.3,33.9,29.86,NE,41,0.0,0.0,91,0.00,,,0.00,0.00,VWS V14.01,2013-12-02 08:26:00,
2013-12-02 03:31:00,36.2,33.8,29.86,NE,41,0.0,0.0,91,0.00,,,0.00,0.00,VWS V14.01,2013-12-02 08:31:00,
2013-12-02 03:36:00,36.3,33.9,29.86,NE,41,0.0,0.0,91,0.00,,,0.00,0.00,VWS V14.01,2013-12-02 08:36:00,
2013-12-02 03:41:00,36.3,33.9,29.86,NE,41,0.0,0.0,91,0.00,,,0.00,0.00,VWS V14.01,2013-12-02 08:41:00,
2013-12-02 03:46:00,36.5,34.4,29.86,NE,41,0.0,0.0,92,0.00,,,0.00,0.00,VWS V14.01,2013-12-02 08:46:00,
2013-12-02 03:51:00,36.8,34.4,29.86,NE,41,0.0,0.0,91,0.00,,,0.00,0.00,VWS V14.01,2013-12-02 08:51:00,
2013-12-02 03:56:00,37.0,34.9,29.86,NE,41,0.0,0.0,92,0.00,,,0.00,0.00,VWS V14.01,2013-12-02 08:56:00,
2013-12-02 04:01:00,37.3,35.2,29.86,NE,41,0.0,0.0,92,0.00,,,0.00,0.00,VWS V14.01,2013-12-02 09:01:00,
2013-12-02 04:06:00,37.5,35.4,29.86,NE,41,0.0,0.0,92,0.00,,,0.00,0.00,VWS V14.01,2013-12-02 09:06:00,
2013-12-02 04:11:00,37.6,35.5,29.86,NE,41,0.0,0.0,92,0.00,,,0.00,0.00,VWS V14.01,2013-12-02 09:11:00,
2013-12-02 04:16:00,37.9,35.8,29.86,NE,41,0.0,0.0,92,0.00,,,0.00,0.00,VWS V14.01,2013-12-02 09:16:00,
2013-12-02 04:21:00,38.0,35.9,29.86,NE,41,0.0,0.0,92,0.00,,,0.00,0.00,VWS V14.01,2013-12-02 09:21:00,
2013-12-02 04:26:00,38.2,36.1,29.85,NE,41,0.0,0.0,92,0.00,,,0.00,0.00,VWS V14.01,2013-12-02 09:26:00,
2013-12-02 04:31:00,38.3,36.2,29.85,NE,41,0.0,0.0,92,0.00,,,0.00,0.00,VWS V14.01,2013-12-02 09:31:00,
2013-12-02 04:36:00,38.5,36.4,29.85,NE,41,0.0,0.0,92,0.00,,,0.00,0.00,VWS V14.01,2013-12-02 09:36:00,
2013-12-02 04:41:00,38.5,36.4,29.84,NE,41,0.0,0.0,92,0.00,,,0.00,0.00,VWS V14.01,2013-12-02 09:41:00,
2013-12-02 04:46:00,38.6,36.5,29.84,NE,41,0.0,0.0,92,0.00,,,0.00,0.00,VWS V14.01,2013-12-02 09:46:00,
2013-12-02 04:51:00,38.6,36.5,29.84,NE,41,0.0,0.0,92,0.00,,,0.00,0.00,VWS V14.01,2013-12-02 09:51:00,
2013-12-02 04:55:00,38.8,36.7,29.84,NE,41,0.0,0.0,92,0.00,,,0.00,0.00,VWS V14.01,2013-12-02 09:55:00,
2013-12-02 05:00:00,38.8,36.7,29.84,NE,41,0.0,0.0,92,0.00,,,0.00,0.00,VWS V14.01,2013-12-02 10:00:00,
2013-12-02 05:05:00,38.9,36.8,29.84,NE,41,0.0,0.0,92,0.00,,,0.00,0.00,VWS V14.01,2013-12-02 10:05:00,
2013-12-02 05:10:00,38.9,36.8,29.84,NE,41,0.0,0.0,92,0.00,,,0.00,0.00,VWS V14.01,2013-12-02 10:10:00,
2013-12-02 05:15:00,38.9,36.8,29.84,NE,41,0.0,0.0,92,0.00,,,0.00,0.00,VWS V14.01,2013-12-02 10:15:00,
2013-12-02 05:20:00,38.9,36.8,29.84,NE,41,0.0,0.0,92,0.00,,,0.00,0.00,VWS V14.01,2013-12-02 10:20:00,
2013-12-02 05:25:00,38.9,36.8,29.84,NE,41,0.0,0.0,92,0.00,,,0.00,0.00,VWS V14.01,2013-12-02 10:25:00,
2013-12-02 05:30:00,38.9,36.8,29.84,NE,41,0.0,0.0,92,0.00,,,0.00,0.00,VWS V14.01,2013-12-02 10:30:00,
2013-12-02 05:35:00,38.9,36.8,29.84,NE,41,0.0,0.0,92,0.00,,,0.00,0.00,VWS V14.01,2013-12-02 10:35:00,
2013-12-02 05:40:00,39.1,37.0,29.84,NE,41,0.0,0.0,92,0.00,,,0.00,0.00,VWS V14.01,2013-12-02 10:40:00,
2013-12-02 05:45:00,39.1,37.0,29.84,NE,41,0.0,0.0,92,0.00,,,0.00,0.00,VWS V14.01,2013-12-02 10:45:00,
2013-12-02 05:50:00,39.2,37.1,29.84,NE,41,0.0,0.0,92,0.00,,,0.00,0.00,VWS V14.01,2013-12-02 10:50:00,
2013-12-02 05:55:00,39.2,37.1,29.85,NE,41,0.0,0.0,92,0.00,,,0.00,0.00,VWS V14.01,2013-12-02 10:55:00,
2013-12-02 06:00:00,39.3,37.2,29.85,NE,41,0.0,0.0,92,0.00,,,0.00,0.00,VWS V14.01,2013-12-02 11:00:00,
2013-12-02 06:05:00,39.5,37.4,29.85,NE,41,0.0,0.0,92,0.00,,,0.00,0.00,VWS V14.01,2013-12-02 11:05:00,
2013-12-02 06:10:00,39.5,37.4,29.84,NE,41,0.0,0.0,92,0.00,,,0.00,0.00,VWS V14.01,2013-12-02 11:10:00,
2013-12-02 06:15:00,39.6,37.2,29.84,NE,41,0.0,0.0,91,0.00,,,0.00,0.00,VWS V14.01,2013-12-02 11:15:00,
2013-12-02 06:20:00,39.6,37.2,29.84,NE,41,0.0,0.0,91,0.00,,,0.00,0.00,VWS V14.01,2013-12-02 11:20:00,
2013-12-02 06:25:00,39.6,37.2,29.84,NE,41,0.0,0.0,91,0.00,,,0.00,0.00,VWS V14.01,2013-12-02 11:25:00,
2013-12-02 06:30:00,39.6,37.2,29.84,NE,41,0.0,0.0,91,0.00,,,0.00,0.00,VWS V14.01,2013-12-02 11:30:00,
2013-12-02 06:35:00,39.6,37.2,29.84,NE,41,0.0,0.0,91,0.00,,,0.00,0.00,VWS V14.01,2013-12-02 11:35:00,
2013-12-02 06:40:00,39.8,37.4,29.84,NE,41,0.0,0.0,91,0.00,,,0.00,0.00,VWS V14.01,2013-12-02 11:40:00,
2013-12-02 06:45:00,39.9,37.5,29.84,NE,41,0.0,0.0,91,0.00,,,0.00,0.00,VWS V14.01,2013-12-02 11:45:00,
2013-12-02 06:50:00,39.9,37.5,29.84,NE,41,0.0,0.0,91,0.00,,,0.00,0.00,VWS V14.01,2013-12-02 11:50:00,
2013-12-02 06:55:00,39.9,37.5,29.84,NE,41,0.0,0.0,91,0.00,,,0.00,0.00,VWS V14.01,2013-12-02 11:55:00,
2013-12-02 07:00:00,39.9,37.5,29.84,NE,41,0.0,0.0,91,0.00,,,0.00,0.00,VWS V14.01,2013-12-02 12:00:00,
2013-12-02 07:05:00,39.9,37.5,29.84,NE,41,0.0,0.0,91,0.00,,,0.00,0.00,VWS V14.01,2013-12-02 12:05:00,
2013-12-02 07:10:00,40.1,37.7,29.84,NE,41,0.0,0.0,91,0.00,,,0.00,0.00,VWS V14.01,2013-12-02 12:10:00,
2013-12-02 07:15:00,40.1,37.7,29.84,NE,41,0.0,0.0,91,0.00,,,0.00,0.00,VWS V14.01,2013-12-02 12:15:00,
2013-12-02 07:20:00,40.1,37.7,29.84,NE,41,0.0,0.0,91,0.00,,,0.00,5.00,VWS V14.01,2013-12-02 12:20:00,
2013-12-02 07:25:00,40.1,37.7,29.84,NE,41,0.0,0.0,91,0.00,,,0.00,11.00,VWS V14.01,2013-12-02 12:25:00,
2013-12-02 07:30:00,40.1,37.4,29.84,NE,41,0.0,0.0,90,0.00,,,0.00,14.00,VWS V14.01,2013-12-02 12:30:00,
2013-12-02 07:35:00,40.1,37.4,29.84,NE,41,0.0,0.0,90,0.00,,,0.00,12.00,VWS V14.01,2013-12-02 12:35:00,
2013-12-02 07:40:00,40.2,37.5,29.83,NE,41,0.0,0.0,90,0.00,,,0.00,14.00,VWS V14.01,2013-12-02 12:40:00,
2013-12-02 07:45:00,40.2,37.8,29.83,NE,41,0.0,0.0,91,0.00,,,0.00,16.00,VWS V14.01,2013-12-02 12:45:00,
2013-12-02 07:50:00,40.3,37.6,29.83,NE,41,0.0,0.0,90,0.00,,,0.00,21.00,VWS V14.01,2013-12-02 12:50:00,
2013-12-02 07:55:00,40.5,38.1,29.84,NE,41,0.0,0.0,91,0.00,,,0.00,25.00,VWS V14.01,2013-12-02 12:55:00,
2013-12-02 08:00:00,40.8,38.4,29.84,NE,41,0.0,0.0,91,0.00,,,0.00,26.00,VWS V14.01,2013-12-02 13:00:00,
2013-12-02 08:05:00,41.1,38.7,29.84,NE,41,0.0,0.0,91,0.00,,,0.00,33.00,VWS V14.01,2013-12-02 13:05:00,
2013-12-02 08:10:00,41.2,38.5,29.83,NE,41,0.0,0.0,90,0.00,,,0.00,44.00,VWS V14.01,2013-12-02 13:10:00,
2013-12-02 08:15:00,41.3,38.6,29.83,NE,41,0.0,0.0,90,0.00,,,0.00,46.00,VWS V14.01,2013-12-02 13:15:00,
2013-12-02 08:20:00,41.6,38.9,29.83,NE,41,0.0,0.0,90,0.00,,,0.00,44.00,VWS V14.01,2013-12-02 13:20:00,
2013-12-02 08:25:00,41.6,38.9,29.83,NE,41,0.0,0.0,90,0.00,,,0.00,44.00,VWS V14.01,2013-12-02 13:25:00,
2013-12-02 08:30:00,41.8,39.1,29.83,NE,41,0.0,0.0,90,0.00,,,0.00,56.00,VWS V14.01,2013-12-02 13:30:00,
2013-12-02 08:35:00,41.9,39.2,29.83,NE,41,0.0,0.0,90,0.00,,,0.00,49.00,VWS V14.01,2013-12-02 13:35:00,
2013-12-02 08:40:00,42.2,39.5,29.83,NE,41,0.0,0.0,90,0.00,,,0.00,51.00,VWS V14.01,2013-12-02 13:40:00,
2013-12-02 08:45:00,42.3,39.3,29.83,NE,41,0.0,0.0,89,0.00,,,0.00,53.00,VWS V14.01,2013-12-02 13:45:00,
2013-12-02 08:50:00,42.5,39.5,29.83,NE,41,0.0,0.0,89,0.00,,,0.00,60.00,VWS V14.01,2013-12-02 13:50:00,
2013-12-02 08:55:00,42.8,39.8,29.83,NE,41,0.0,0.0,89,0.00,,,0.00,79.00,VWS V14.01,2013-12-02 13:55:00,
2013-12-02 09:00:00,42.9,39.9,29.83,NE,41,0.0,0.0,89,0.00,,,0.00,81.00,VWS V14.01,2013-12-02 14:00:00,
2013-12-02 09:05:00,43.1,39.8,29.83,NE,41,0.0,0.0,88,0.00,,,0.00,91.00,VWS V14.01,2013-12-02 14:05:00,
2013-12-02 09:10:00,43.2,39.9,29.83,NE,41,0.0,0.0,88,0.00,,,0.00,97.00,VWS V14.01,2013-12-02 14:10:00,
2013-12-02 09:15:00,43.5,40.2,29.83,NE,41,0.0,0.0,88,0.00,,,0.00,111.00,VWS V14.01,2013-12-02 14:15:00,
2013-12-02 09:20:00,43.8,40.2,29.83,NE,41,0.0,0.0,87,0.00,,,0.00,113.00,VWS V14.01,2013-12-02 14:20:00,
2013-12-02 09:25:00,44.1,40.5,29.83,NE,41,0.0,0.0,87,0.00,,,0.00,123.00,VWS V14.01,2013-12-02 14:25:00,
2013-12-02 09:30:00,44.3,40.4,29.83,NE,41,0.0,0.0,86,0.00,,,0.00,127.00,VWS V14.01,2013-12-02 14:30:00,
2013-12-02 09:35:00,44.8,40.9,29.83,NE,41,0.0,2.0,86,0.00,,,0.00,132.00,VWS V14.01,2013-12-02 14:35:00,
2013-12-02 09:40:00,45.1,40.9,29.83,NE,41,0.0,0.0,85,0.00,,,0.00,162.00,VWS V14.01,2013-12-02 14:40:00,
2013-12-02 09:45:00,45.5,41.0,29.83,North,358,0.0,0.0,84,0.00,,,0.00,160.00,VWS V14.01,2013-12-02 14:45:00,
2013-12-02 09:50:00,45.8,40.9,29.83,North,358,0.0,2.0,83,0.00,,,0.00,163.00,VWS V14.01,2013-12-02 14:50:00,
2013-12-02 09:55:00,46.1,40.9,29.83,North,358,0.0,0.0,82,0.00,,,0.00,151.00,VWS V14.01,2013-12-02 14:55:00,
2013-12-02 10:00:00,46.4,40.9,29.83,North,358,0.0,0.0,81,0.00,,,0.00,144.00,VWS V14.01,2013-12-02 15:00:00,
2013-12-02 10:05:00,46.8,41.3,29.83,North,358,0.0,1.0,81,0.00,,,0.00,160.00,VWS V14.01,2013-12-02 15:05:00,
2013-12-02 10:10:00,47.1,41.3,29.83,North,358,0.0,0.0,80,0.00,,,0.00,163.00,VWS V14.01,2013-12-02 15:10:00,
2013-12-02 10:15:00,47.4,41.5,29.83,North,358,0.0,0.0,80,0.00,,,0.00,139.00,VWS V14.01,2013-12-02 15:15:00,
2013-12-02 10:20:00,47.7,41.5,29.83,North,358,0.0,1.0,79,0.00,,,0.00,190.00,VWS V14.01,2013-12-02 15:20:00,
2013-12-02 10:25:00,48.2,42.0,29.83,NNW,335,2.0,3.0,79,0.00,,,0.00,241.00,VWS V14.01,2013-12-02 15:25:00,
2013-12-02 10:30:00,48.6,42.1,29.83,NNW,338,0.0,0.0,78,0.00,,,0.00,232.00,VWS V14.01,2013-12-02 15:30:00,
2013-12-02 10:35:00,49.2,42.0,29.83,NNW,330,0.0,0.0,76,0.00,,,0.00,403.00,VWS V14.01,2013-12-02 15:35:00,
2013-12-02 10:40:00,49.8,42.2,29.83,NNW,343,0.0,2.0,75,0.00,,,0.00,139.00,VWS V14.01,2013-12-02 15:40:00,
2013-12-02 10:45:00,50.2,41.5,29.83,North,358,0.0,0.0,72,0.00,,,0.00,188.00,VWS V14.01,2013-12-02 15:45:00,
2013-12-02 10:50:00,50.4,41.7,29.83,North,11,0.0,0.0,72,0.00,,,0.00,181.00,VWS V14.01,2013-12-02 15:50:00,
2013-12-02 10:55:00,50.7,41.7,29.82,NNE,18,0.0,1.0,71,0.00,,,0.00,232.00,VWS V14.01,2013-12-02 15:55:00,
2013-12-02 11:00:00,51.0,41.6,29.82,NNE,19,1.0,3.0,70,0.00,,,0.00,397.00,VWS V14.01,2013-12-02 16:00:00,
2013-12-02 11:05:00,51.6,41.4,29.82,NNE,19,0.0,2.0,68,0.00,,,0.00,640.00,VWS V14.01,2013-12-02 16:05:00,
2013-12-02 11:10:00,52.3,42.1,29.82,ENE,58,0.0,0.0,68,0.00,,,0.00,424.00,VWS V14.01,2013-12-02 16:10:00,
2013-12-02 11:15:00,52.9,42.3,29.82,ENE,65,0.0,0.0,67,0.00,,,0.00,227.00,VWS V14.01,2013-12-02 16:15:00,
2013-12-02 11:20:00,53.2,42.2,29.82,ENE,65,0.0,0.0,66,0.00,,,0.00,192.00,VWS V14.01,2013-12-02 16:20:00,
2013-12-02 11:25:00,53.3,41.8,29.81,ENE,65,0.0,0.0,65,0.00,,,0.00,446.00,VWS V14.01,2013-12-02 16:25:00,
2013-12-02 11:30:00,53.8,42.3,29.81,ENE,65,0.0,0.0,65,0.00,,,0.00,378.00,VWS V14.01,2013-12-02 16:30:00,
2013-12-02 11:35:00,54.4,42.5,29.81,ENE,65,0.0,0.0,64,0.00,,,0.00,464.00,VWS V14.01,2013-12-02 16:35:00,
2013-12-02 11:40:00,55.0,43.1,29.80,ENE,65,0.0,0.0,64,0.00,,,0.00,522.00,VWS V14.01,2013-12-02 16:40:00,
2013-12-02 11:45:00,55.4,42.6,29.80,ENE,65,0.0,0.0,62,0.00,,,0.00,258.00,VWS V14.01,2013-12-02 16:45:00,
2013-12-02 11:50:00,55.7,42.5,29.80,ENE,65,0.0,0.0,61,0.00,,,0.00,206.00,VWS V14.01,2013-12-02 16:50:00,
2013-12-02 11:55:00,55.9,41.8,29.79,ENE,65,0.0,0.0,59,0.00,,,0.00,258.00,VWS V14.01,2013-12-02 16:55:00,
2013-12-02 12:00:00,56.0,42.3,29.79,ENE,65,0.0,0.0,60,0.00,,,0.00,492.00,VWS V14.01,2013-12-02 17:00:00,
2013-12-02 12:05:00,56.6,42.5,29.79,ENE,65,0.0,0.0,59,0.00,,,0.00,548.00,VWS V14.01,2013-12-02 17:05:00,
2013-12-02 12:10:00,57.0,42.4,29.78,ENE,65,0.0,0.0,58,0.00,,,0.00,561.00,VWS V14.01,2013-12-02 17:10:00,
2013-12-02 12:15:00,57.6,43.0,29.78,East,84,4.0,4.0,58,0.00,,,0.00,568.00,VWS V14.01,2013-12-02 17:15:00,
2013-12-02 12:20:00,58.1,43.0,29.78,ESE,116,0.0,0.0,57,0.00,,,0.00,411.00,VWS V14.01,2013-12-02 17:20:00,
2013-12-02 12:25:00,58.6,42.5,29.77,ESE,116,0.0,0.0,55,0.00,,,0.00,432.00,VWS V14.01,2013-12-02 17:25:00,
2013-12-02 12:30:00,58.6,42.0,29.77,ENE,63,0.0,1.0,54,0.00,,,0.00,223.00,VWS V14.01,2013-12-02 17:30:00,
2013-12-02 12:35:00,58.4,42.3,29.77,ENE,68,2.0,2.0,55,0.00,,,0.00,313.00,VWS V14.01,2013-12-02 17:35:00,
2013-12-02 12:40:00,58.1,42.5,29.76,ESE,108,2.0,3.0,56,0.00,,,0.00,285.00,VWS V14.01,2013-12-02 17:40:00,
2013-12-02 12:45:00,57.8,42.2,29.76,ESE,123,0.0,0.0,56,0.00,,,0.00,309.00,VWS V14.01,2013-12-02 17:45:00,
2013-12-02 12:50:00,58.1,42.5,29.76,SE,124,0.0,0.0,56,0.00,,,0.00,427.00,VWS V14.01,2013-12-02 17:50:00,
2013-12-02 12:55:00,58.3,40.8,29.76,SE,124,5.0,5.0,52,0.00,,,0.00,394.00,VWS V14.01,2013-12-02 17:55:00,
2013-12-02 13:00:00,58.6,41.5,29.76,ESE,120,1.0,1.0,53,0.00,,,0.00,294.00,VWS V14.01,2013-12-02 18:00:00,
2013-12-02 13:05:00,58.6,39.5,29.76,SSE,153,3.0,3.0,49,0.00,,,0.00,271.00,VWS V14.01,2013-12-02 18:05:00,
2013-12-02 13:10:00,58.4,39.3,29.76,ESE,117,0.0,3.0,49,0.00,,,0.00,264.00,VWS V14.01,2013-12-02 18:10:00,
2013-12-02 13:15:00,58.4,38.3,29.76,SE,144,4.0,4.0,47,0.00,,,0.00,292.00,VWS V14.01,2013-12-02 18:15:00,
2013-12-02 13:20:00,58.4,38.8,29.76,ESE,109,0.0,4.0,48,0.00,,,0.00,302.00,VWS V14.01,2013-12-02 18:20:00,
2013-12-02 13:25:00,58.3,37.1,29.75,East,99,0.0,0.0,45,0.00,,,0.00,309.00,VWS V14.01,2013-12-02 18:25:00,
2013-12-02 13:30:00,58.3,35.9,29.75,ENE,70,0.0,0.0,43,0.00,,,0.00,348.00,VWS V14.01,2013-12-02 18:30:00,
2013-12-02 13:35:00,58.6,36.8,29.75,ESE,103,4.0,4.0,44,0.00,,,0.00,446.00,VWS V14.01,2013-12-02 18:35:00,
2013-12-02 13:40:00,59.0,37.1,29.75,East,101,0.0,0.0,44,0.00,,,0.00,281.00,VWS V14.01,2013-12-02 18:40:00,
2013-12-02 13:45:00,59.3,37.4,29.75,East,101,0.0,0.0,44,0.00,,,0.00,218.00,VWS V14.01,2013-12-02 18:45:00,
2013-12-02 13:50:00,59.3,35.6,29.75,East,101,0.0,0.0,41,0.00,,,0.00,199.00,VWS V14.01,2013-12-02 18:50:00,
2013-12-02 13:55:00,59.2,35.5,29.75,East,101,0.0,0.0,41,0.00,,,0.00,169.00,VWS V14.01,2013-12-02 18:55:00,
2013-12-02 14:00:00,58.9,35.9,29.75,East,101,0.0,0.0,42,0.00,,,0.00,160.00,VWS V14.01,2013-12-02 19:00:00,
2013-12-02 14:05:00,58.7,36.9,29.75,East,101,0.0,1.0,44,0.00,,,0.00,517.00,VWS V14.01,2013-12-02 19:05:00,
2013-12-02 14:10:00,58.9,37.0,29.75,East,101,0.0,0.0,44,0.00,,,0.00,457.00,VWS V14.01,2013-12-02 19:10:00,
2013-12-02 14:15:00,59.2,35.5,29.75,East,101,0.0,0.0,41,0.00,,,0.00,443.00,VWS V14.01,2013-12-02 19:15:00,
2013-12-02 14:20:00,59.6,37.1,29.75,East,101,0.0,0.0,43,0.00,,,0.00,413.00,VWS V14.01,2013-12-02 19:20:00,
2013-12-02 14:25:00,59.9,36.8,29.74,East,101,0.0,0.0,42,0.00,,,0.00,413.00,VWS V14.01,2013-12-02 19:25:00,
2013-12-02 14:30:00,59.5,35.8,29.74,ENE,72,0.0,2.0,41,0.00,,,0.00,403.00,VWS V14.01,2013-12-02 19:30:00,
2013-12-02 14:35:00,59.3,35.6,29.74,ENE,72,0.0,0.0,41,0.00,,,0.00,388.00,VWS V14.01,2013-12-02 19:35:00,
2013-12-02 14:40:00,59.2,34.9,29.75,ENE,72,0.0,2.0,40,0.00,,,0.00,323.00,VWS V14.01,2013-12-02 19:40:00,
2013-12-02 14:45:00,58.9,34.0,29.75,ENE,72,0.0,0.0,39,0.00,,,0.00,62.00,VWS V14.01,2013-12-02 19:45:00,
2013-12-02 14:50:00,58.7,34.5,29.75,ENE,72,0.0,0.0,40,0.00,,,0.00,62.00,VWS V14.01,2013-12-02 19:50:00,
2013-12-02 14:55:00,58.4,33.6,29.75,SE,141,3.0,5.0,39,0.00,,,0.00,56.00,VWS V14.01,2013-12-02 19:55:00,
2013-12-02 15:00:00,58.3,33.5,29.75,ESE,123,0.0,0.0,39,0.00,,,0.00,58.00,VWS V14.01,2013-12-02 20:00:00,
2013-12-02 15:05:00,58.3,34.7,29.75,ESE,120,0.0,3.0,41,0.00,,,0.00,58.00,VWS V14.01,2013-12-02 20:05:00,
2013-12-02 15:10:00,58.1,35.2,29.74,SE,133,0.0,3.0,42,0.00,,,0.00,56.00,VWS V14.01,2013-12-02 20:10:00,
2013-12-02 15:15:00,58.0,35.1,29.74,ESE,113,0.0,1.0,42,0.00,,,0.00,56.00,VWS V14.01,2013-12-02 20:15:00,
2013-12-02 15:20:00,57.8,35.5,29.74,East,85,0.0,0.0,43,0.00,,,0.00,56.00,VWS V14.01,2013-12-02 20:20:00,
2013-12-02 15:25:00,57.8,36.0,29.74,ESE,104,0.0,0.0,44,0.00,,,0.00,54.00,VWS V14.01,2013-12-02 20:25:00,
2013-12-02 15:30:00,57.8,37.7,29.74,ESE,105,0.0,0.0,47,0.00,,,0.00,53.00,VWS V14.01,2013-12-02 20:30:00,
2013-12-02 15:35:00,57.8,38.3,29.74,ESE,105,0.0,1.0,48,0.00,,,0.00,54.00,VWS V14.01,2013-12-02 20:35:00,
2013-12-02 15:40:00,57.6,38.6,29.74,ESE,105,0.0,0.0,49,0.00,,,0.00,49.00,VWS V14.01,2013-12-02 20:40:00,
2013-12-02 15:45:00,57.3,38.3,29.74,ESE,105,0.0,0.0,49,0.00,,,0.00,47.00,VWS V14.01,2013-12-02 20:45:00,
2013-12-02 15:50:00,57.0,38.6,29.74,ESE,105,0.0,0.0,50,0.00,,,0.00,44.00,VWS V14.01,2013-12-02 20:50:00,
2013-12-02 15:55:00,56.9,39.0,29.74,ESE,105,0.0,0.0,51,0.00,,,0.00,42.00,VWS V14.01,2013-12-02 20:55:00,
2013-12-02 16:00:00,56.6,38.7,29.74,ESE,105,0.0,0.0,51,0.00,,,0.00,37.00,VWS V14.01,2013-12-02 21:00:00,
2013-12-02 16:05:00,56.3,39.4,29.74,ESE,105,0.0,0.0,53,0.00,,,0.00,33.00,VWS V14.01,2013-12-02 21:05:00,
2013-12-02 16:10:00,56.0,39.1,29.74,ESE,105,0.0,0.0,53,0.00,,,0.00,28.00,VWS V14.01,2013-12-02 21:10:00,
2013-12-02 16:15:00,55.7,39.8,29.74,ESE,105,0.0,0.0,55,0.00,,,0.00,26.00,VWS V14.01,2013-12-02 21:15:00,
2013-12-02 16:20:00,55.3,39.4,29.74,ESE,105,0.0,0.0,55,0.00,,,0.00,23.00,VWS V14.01,2013-12-02 21:20:00,
2013-12-02 16:25:00,55.0,40.1,29.74,ESE,105,0.0,0.0,57,0.00,,,0.00,21.00,VWS V14.01,2013-12-02 21:25:00,
2013-12-02 16:30:00,54.4,40.0,29.74,ESE,105,0.0,0.0,58,0.00,,,0.00,19.00,VWS V14.01,2013-12-02 21:30:00,
2013-12-02 16:35:00,53.9,39.5,29.74,ESE,105,0.0,0.0,58,0.00,,,0.00,18.00,VWS V14.01,2013-12-02 21:35:00,
2013-12-02 16:40:00,53.5,39.5,29.74,ESE,105,0.0,0.0,59,0.00,,,0.00,14.00,VWS V14.01,2013-12-02 21:40:00,
2013-12-02 16:45:00,53.1,40.0,29.74,ESE,105,0.0,0.0,61,0.00,,,0.00,11.00,VWS V14.01,2013-12-02 21:45:00,
2013-12-02 16:50:00,52.5,39.9,29.74,ESE,105,0.0,0.0,62,0.00,,,0.00,5.00,VWS V14.01,2013-12-02 21:50:00,
2013-12-02 16:55:00,52.0,40.6,29.74,ESE,105,0.0,0.0,65,0.00,,,0.00,0.00,VWS V14.01,2013-12-02 21:55:00,
2013-12-02 17:00:00,51.4,40.4,29.74,ESE,105,0.0,0.0,66,0.00,,,0.00,0.00,VWS V14.01,2013-12-02 22:00:00,
2013-12-02 17:05:00,50.8,39.9,29.74,ESE,105,0.0,0.0,66,0.00,,,0.00,0.00,VWS V14.01,2013-12-02 22:05:00,
2013-12-02 17:10:00,50.4,39.9,29.74,ESE,105,0.0,0.0,67,0.00,,,0.00,0.00,VWS V14.01,2013-12-02 22:10:00,
2013-12-02 17:15:00,49.6,39.5,29.74,ESE,105,0.0,0.0,68,0.00,,,0.00,0.00,VWS V14.01,2013-12-02 22:15:00,
2013-12-02 17:20:00,49.1,39.4,29.74,ESE,105,0.0,0.0,69,0.00,,,0.00,0.00,VWS V14.01,2013-12-02 22:20:00,
2013-12-02 17:25:00,48.6,39.3,29.75,ESE,105,0.0,0.0,70,0.00,,,0.00,0.00,VWS V14.01,2013-12-02 22:25:00,
2013-12-02 17:30:00,47.9,39.3,29.75,ESE,105,0.0,0.0,72,0.00,,,0.00,0.00,VWS V14.01,2013-12-02 22:30:00,
2013-12-02 17:35:00,47.3,38.7,29.75,ESE,105,0.0,0.0,72,0.00,,,0.00,0.00,VWS V14.01,2013-12-02 22:35:00,
2013-12-02 17:40:00,46.7,38.5,29.75,ESE,105,0.0,0.0,73,0.00,,,0.00,0.00,VWS V14.01,2013-12-02 22:40:00,
2013-12-02 17:45:00,46.2,38.0,29.75,ESE,105,0.0,0.0,73,0.00,,,0.00,0.00,VWS V14.01,2013-12-02 22:45:00,
2013-12-02 17:50:00,45.8,38.0,29.75,ESE,105,0.0,0.0,74,0.00,,,0.00,0.00,VWS V14.01,2013-12-02 22:50:00,
2013-12-02 17:55:00,45.4,38.0,29.75,ESE,105,0.0,0.0,75,0.00,,,0.00,0.00,VWS V14.01,2013-12-02 22:55:00,
2013-12-02 18:00:00,44.9,38.1,29.75,ESE,105,0.0,0.0,77,0.00,,,0.00,0.00,VWS V14.01,2013-12-02 23:00:00,
2013-12-02 18:05:00,44.6,38.5,29.75,ESE,105,0.0,0.0,79,0.00,,,0.00,0.00,VWS V14.01,2013-12-02 23:05:00,
2013-12-02 18:10:00,44.3,38.2,29.75,ESE,105,0.0,0.0,79,0.00,,,0.00,0.00,VWS V14.01,2013-12-02 23:10:00,
2013-12-02 18:15:00,43.9,38.1,29.75,ESE,105,0.0,0.0,80,0.00,,,0.00,0.00,VWS V14.01,2013-12-02 23:15:00,
2013-12-02 18:20:00,43.6,37.8,29.75,ESE,105,0.0,0.0,80,0.00,,,0.00,0.00,VWS V14.01,2013-12-02 23:20:00,
2013-12-02 18:25:00,43.2,37.5,29.75,ESE,105,0.0,0.0,80,0.00,,,0.00,0.00,VWS V14.01,2013-12-02 23:25:00,
2013-12-02 18:30:00,42.9,37.2,29.75,ESE,105,0.0,0.0,80,0.00,,,0.00,0.00,VWS V14.01,2013-12-02 23:30:00,
2013-12-02 18:35:00,42.6,37.8,29.75,ESE,105,0.0,0.0,83,0.00,,,0.00,0.00,VWS V14.01,2013-12-02 23:35:00,
2013-12-02 18:40:00,42.5,38.0,29.76,ESE,105,0.0,0.0,84,0.00,,,0.00,0.00,VWS V14.01,2013-12-02 23:40:00,
2013-12-02 18:45:00,42.2,37.4,29.76,ESE,105,0.0,0.0,83,0.00,,,0.00,0.00,VWS V14.01,2013-12-02 23:45:00,
2013-12-02 18:50:00,41.9,37.1,29.76,ESE,105,0.0,0.0,83,0.00,,,0.00,0.00,VWS V14.01,2013-12-02 23:50:00,
2013-12-02 18:55:00,41.6,36.8,29.76,ESE,105,0.0,0.0,83,0.00,,,0.00,0.00,VWS V14.01,2013-12-02 23:55:00,
2013-12-02 19:00:00,41.3,36.5,29.76,ESE,105,0.0,0.0,83,0.00,,,0.00,0.00,VWS V14.01,2013-12-03 00:00:00,
2013-12-02 19:05:00,41.1,36.3,29.76,ESE,105,0.0,0.0,83,0.00,,,0.00,0.00,VWS V14.01,2013-12-03 00:05:00,
2013-12-02 19:10:00,40.8,36.0,29.75,ESE,105,0.0,0.0,83,0.00,,,0.00,0.00,VWS V14.01,2013-12-03 00:10:00,
2013-12-02 19:15:00,40.5,36.0,29.75,ESE,105,0.0,0.0,84,0.00,,,0.00,0.00,VWS V14.01,2013-12-03 00:15:00,
2013-12-02 19:20:00,40.5,36.7,29.75,ESE,105,0.0,0.0,86,0.00,,,0.00,0.00,VWS V14.01,2013-12-03 00:20:00,
2013-12-02 19:25:00,40.5,36.7,29.76,ESE,105,0.0,0.0,86,0.00,,,0.00,0.00,VWS V14.01,2013-12-03 00:25:00,
2013-12-02 19:30:00,40.3,36.5,29.76,ESE,105,0.0,0.0,86,0.00,,,0.00,0.00,VWS V14.01,2013-12-03 00:30:00,
2013-12-02 19:35:00,40.1,36.3,29.76,ESE,105,0.0,0.0,86,0.00,,,0.00,0.00,VWS V14.01,2013-12-03 00:35:00,
2013-12-02 19:40:00,39.9,36.1,29.76,ESE,105,0.0,0.0,86,0.00,,,0.00,0.00,VWS V14.01,2013-12-03 00:40:00,
2013-12-02 19:45:00,39.6,35.8,29.76,ESE,105,0.0,0.0,86,0.00,,,0.00,0.00,VWS V14.01,2013-12-03 00:45:00,
2013-12-02 19:50:00,39.5,35.7,29.76,ESE,105,0.0,0.0,86,0.00,,,0.00,0.00,VWS V14.01,2013-12-03 00:50:00,
2013-12-02 19:55:00,39.8,36.2,29.77,ESE,105,0.0,0.0,87,0.00,,,0.00,0.00,VWS V14.01,2013-12-03 00:55:00,
2013-12-02 20:00:00,39.9,36.6,29.77,ESE,105,0.0,0.0,88,0.00,,,0.00,0.00,VWS V14.01,2013-12-03 01:00:00,
2013-12-02 20:05:00,39.8,36.5,29.77,ESE,105,0.0,0.0,88,0.00,,,0.00,0.00,VWS V14.01,2013-12-03 01:05:00,
2013-12-02 20:10:00,39.6,36.6,29.77,ESE,105,0.0,0.0,89,0.00,,,0.00,0.00,VWS V14.01,2013-12-03 01:10:00,
2013-12-02 20:15:00,39.3,36.3,29.77,ESE,105,0.0,0.0,89,0.00,,,0.00,0.00,VWS V14.01,2013-12-03 01:15:00,
2013-12-02 20:20:00,39.2,36.2,29.77,ESE,105,0.0,0.0,89,0.00,,,0.00,0.00,VWS V14.01,2013-12-03 01:20:00,
2013-12-02 20:25:00,38.9,35.9,29.77,ESE,105,0.0,0.0,89,0.00,,,0.00,0.00,VWS V14.01,2013-12-03 01:25:00,
2013-12-02 20:30:00,38.6,35.6,29.77,ESE,105,0.0,0.0,89,0.00,,,0.00,0.00,VWS V14.01,2013-12-03 01:30:00,
2013-12-02 20:35:00,38.5,35.5,29.77,ESE,105,0.0,0.0,89,0.00,,,0.00,0.00,VWS V14.01,2013-12-03 01:35:00,
2013-12-02 20:40:00,38.3,35.3,29.77,ESE,105,0.0,0.0,89,0.00,,,0.00,0.00,VWS V14.01,2013-12-03 01:40:00,
2013-12-02 20:45:00,38.0,35.0,29.77,ESE,105,0.0,0.0,89,0.00,,,0.00,0.00,VWS V14.01,2013-12-03 01:45:00,
2013-12-02 20:50:00,37.9,35.0,29.77,ESE,105,0.0,0.0,89,0.00,,,0.00,0.00,VWS V14.01,2013-12-03 01:50:00,
2013-12-02 20:55:00,37.8,35.1,29.77,ESE,105,0.0,0.0,90,0.00,,,0.00,0.00,VWS V14.01,2013-12-03 01:55:00,
2013-12-02 21:00:00,37.8,35.1,29.77,ESE,105,0.0,0.0,90,0.00,,,0.00,0.00,VWS V14.01,2013-12-03 02:00:00,
2013-12-02 21:05:00,37.6,34.9,29.77,ESE,105,0.0,0.0,90,0.00,,,0.00,0.00,VWS V14.01,2013-12-03 02:05:00,
2013-12-02 21:10:00,37.6,34.9,29.77,ESE,105,0.0,0.0,90,0.00,,,0.00,0.00,VWS V14.01,2013-12-03 02:10:00,
2013-12-02 21:15:00,37.8,35.1,29.77,ESE,105,0.0,0.0,90,0.00,,,0.00,0.00,VWS V14.01,2013-12-03 02:15:00,
2013-12-02 21:20:00,37.6,34.9,29.77,ESE,105,0.0,0.0,90,0.00,,,0.00,0.00,VWS V14.01,2013-12-03 02:20:00,
2013-12-02 21:25:00,37.5,34.8,29.77,ESE,105,0.0,0.0,90,0.00,,,0.00,0.00,VWS V14.01,2013-12-03 02:25:00,
2013-12-02 21:30:00,37.3,34.6,29.77,ESE,105,0.0,0.0,90,0.00,,,0.00,0.00,VWS V14.01,2013-12-03 02:30:00,
2013-12-02 21:35:00,37.2,34.8,29.77,ESE,105,0.0,0.0,91,0.00,,,0.00,0.00,VWS V14.01,2013-12-03 02:35:00,
2013-12-02 21:40:00,37.3,34.9,29.78,ESE,105,0.0,0.0,91,0.00,,,0.00,0.00,VWS V14.01,2013-12-03 02:40:00,
2013-12-02 21:45:00,37.3,34.9,29.78,ESE,105,0.0,0.0,91,0.00,,,0.00,0.00,VWS V14.01,2013-12-03 02:45:00,
2013-12-02 21:50:00,37.2,34.8,29.78,ESE,105,0.0,0.0,91,0.00,,,0.00,0.00,VWS V14.01,2013-12-03 02:50:00,
2013-12-02 21:55:00,37.0,34.6,29.78,ESE,105,0.0,0.0,91,0.00,,,0.00,0.00,VWS V14.01,2013-12-03 02:55:00,
2013-12-02 22:00:00,36.9,34.5,29.78,ESE,105,0.0,0.0,91,0.00,,,0.00,0.00,VWS V14.01,2013-12-03 03:00:00,
2013-12-02 22:05:00,36.8,34.4,29.78,ESE,105,0.0,0.0,91,0.00,,,0.00,0.00,VWS V14.01,2013-12-03 03:05:00,
2013-12-02 22:10:00,36.8,34.7,29.78,ESE,105,0.0,0.0,92,0.00,,,0.00,0.00,VWS V14.01,2013-12-03 03:10:00,
2013-12-02 22:15:00,36.8,34.7,29.78,ESE,105,0.0,0.0,92,0.00,,,0.00,0.00,VWS V14.01,2013-12-03 03:15:00,
2013-12-02 22:20:00,36.6,34.5,29.78,ESE,105,0.0,0.0,92,0.00,,,0.00,0.00,VWS V14.01,2013-12-03 03:20:00,
2013-12-02 22:25:00,36.6,34.5,29.78,ESE,105,0.0,0.0,92,0.00,,,0.00,0.00,VWS V14.01,2013-12-03 03:25:00,
2013-12-02 22:30:00,36.5,34.4,29.78,ESE,105,1.0,3.0,92,0.00,,,0.00,0.00,VWS V14.01,2013-12-03 03:30:00,
2013-12-02 22:35:00,36.5,34.4,29.78,ESE,105,0.0,0.0,92,0.00,,,0.00,0.00,VWS V14.01,2013-12-03 03:35:00,
2013-12-02 22:40:00,36.5,34.4,29.78,ESE,105,0.0,0.0,92,0.00,,,0.00,0.00,VWS V14.01,2013-12-03 03:40:00,
2013-12-02 22:45:00,36.5,34.4,29.78,ESE,105,0.0,0.0,92,0.00,,,0.00,0.00,VWS V14.01,2013-12-03 03:45:00,
2013-12-02 22:50:00,36.3,34.2,29.78,ESE,105,0.0,0.0,92,0.00,,,0.00,0.00,VWS V14.01,2013-12-03 03:50:00,
2013-12-02 22:55:00,36.2,34.1,29.78,ESE,105,0.0,0.0,92,0.00,,,0.00,0.00,VWS V14.01,2013-12-03 03:55:00,
2013-12-02 23:00:00,36.0,33.9,29.78,ESE,105,0.0,0.0,92,0.00,,,0.00,0.00,VWS V14.01,2013-12-03 04:00:00,
2013-12-02 23:05:00,35.9,33.8,29.78,ESE,105,0.0,0.0,92,0.00,,,0.00,0.00,VWS V14.01,2013-12-03 04:05:00,
2013-12-02 23:10:00,35.9,33.8,29.78,ESE,105,0.0,0.0,92,0.00,,,0.00,0.00,VWS V14.01,2013-12-03 04:10:00,
2013-12-02 23:15:00,35.8,33.7,29.78,ESE,105,0.0,0.0,92,0.00,,,0.00,0.00,VWS V14.01,2013-12-03 04:15:00,
2013-12-02 23:20:00,35.8,33.7,29.78,ESE,105,0.0,0.0,92,0.00,,,0.00,0.00,VWS V14.01,2013-12-03 04:20:00,
2013-12-02 23:25:00,35.6,33.5,29.78,ESE,105,0.0,0.0,92,0.00,,,0.00,0.00,VWS V14.01,2013-12-03 04:25:00,
2013-12-02 23:30:00,35.5,33.4,29.78,ESE,105,0.0,0.0,92,0.00,,,0.00,0.00,VWS V14.01,2013-12-03 04:30:00,
2013-12-02 23:35:00,35.3,33.2,29.78,ESE,105,0.0,0.0,92,0.00,,,0.00,0.00,VWS V14.01,2013-12-03 04:35:00,
2013-12-02 23:40:00,35.3,33.2,29.78,ESE,105,0.0,0.0,92,0.00,,,0.00,0.00,VWS V14.01,2013-12-03 04:40:00,
2013-12-02 23:45:00,35.2,33.1,29.78,ESE,105,0.0,0.0,92,0.00,,,0.00,0.00,VWS V14.01,2013-12-03 04:45:00,
2013-12-02 23:50:00,35.2,33.1,29.78,ESE,105,0.0,0.0,92,0.00,,,0.00,0.00,VWS V14.01,2013-12-03 04:50:00,
2013-12-02 23:55:00,35.0,32.9,29.78,ESE,105,0.0,0.0,92,0.00,,,0.00,0.00,VWS V14.01,2013-12-03 04:55:00,